LHPR/QGY METAR and TAF weather

Enter ICAO airport designator
Station Type Date Time Source
LHPR METAR 2020/03/29 15:15 UTC NOAA

LHPR 291515Z AUTO 31021KT CAVOK 15/00 Q1012


Station Type Date Time Source
LHPR Decoded METAR 2020/03/29 15:15 UTC NOAA

Station name not available
Mar 29, 2020 - 11:15 AM EDT / 2020.03.29 1515 UTC
Wind: from the NW (310 degrees) at 24 MPH (21 KT):0
Visibility: greater than 7 mile(s):0
Temperature: 59 F (15 C)
Dew Point: 32 F (0 C)
Relative Humidity: 35%
Pressure (altimeter): 29.88 in. Hg (1012 hPa)
ob: LHPR 291515Z AUTO 31021KT CAVOK 15/00 Q1012
cycle: 15

Station Type Date Time Source
LHPR TAF UTC NOAA

Error!

Example: see airport list